Time;durP1;ratioP1;P1;durP2;ratioP2;P2;SDS_P1;SDS_P2;PMS_P1;PMS_P2;Temp;Humidity;BMP_temperature;BMP_pressure;BME280_temperature;BME280_humidity;BME280_pressure;Samples;Min_cycle;Max_cycle;Signal;HPM_P1;HPM_P2
2022/04/13 00:01:28;;;;;;;;;;;15.60;97.50;;;;;;5052642;28;19939;-70
2022/04/13 00:03:53;;;;;;;;;;;15.50;98.00;;;;;;5050388;28;19936;-70
2022/04/13 00:06:18;;;;;;;;;;;15.40;98.30;;;;;;5052305;28;20370;-70
2022/04/13 00:08:44;;;;;;;;;;;15.40;98.50;;;;;;5051189;28;19916;-69
2022/04/13 00:11:10;;;;;;;;;;;15.40;98.60;;;;;;5051905;28;19916;-71
2022/04/13 00:13:35;;;;;;;;;;;15.40;98.80;;;;;;5052730;28;19962;-70
2022/04/13 00:16:01;;;;;;;;;;;15.40;99.40;;;;;;5051251;28;20000;-70
2022/04/13 00:18:26;;;;;;;;;;;15.40;99.10;;;;;;5052744;28;19909;-70
2022/04/13 00:20:52;;;;;;;;;;;15.40;99.10;;;;;;5051917;28;19916;-70
2022/04/13 00:23:18;;;;;;;;;;;15.30;99.30;;;;;;5052441;28;19909;-70
2022/04/13 00:25:44;;;;;;;;;;;15.40;99.50;;;;;;5052775;28;19928;-70
2022/04/13 00:28:10;;;;;;;;;;;15.30;99.60;;;;;;5052713;28;19913;-70
2022/04/13 00:30:36;;;;;;;;;;;15.30;99.80;;;;;;5052097;28;19909;-70
2022/04/13 00:33:02;;;;;;;;;;;15.20;99.90;;;;;;5052385;28;19913;-70
2022/04/13 00:35:27;;;;;;;;;;;15.10;99.90;;;;;;5052235;28;20007;-70
2022/04/13 00:37:53;;;;;;;;;;;15.00;99.90;;;;;;5051301;28;20425;-70
2022/04/13 00:40:18;;;;;;;;;;;15.00;99.90;;;;;;5051975;28;19955;-70
2022/04/13 00:42:43;;;;;;;;;;;15.00;99.90;;;;;;5052370;28;19909;-70
2022/04/13 00:45:09;;;;;;;;;;;15.00;99.90;;;;;;5052181;28;19939;-71
2022/04/13 00:47:38;;;;;;;;;;;15.00;99.90;;;;;;5052175;28;20342;-71
2022/04/13 00:50:03;;;;;;;;;;;15.00;99.90;;;;;;5052154;28;19934;-70
2022/04/13 00:52:30;;;;;;;;;;;14.90;99.90;;;;;;5052361;28;19988;-71
2022/04/13 00:54:56;;;;;;;;;;;14.80;99.90;;;;;;5052135;28;19916;-70
2022/04/13 00:57:22;;;;;;;;;;;14.70;99.90;;;;;;5052195;28;19909;-70
2022/04/13 00:59:53;;;;;;;;;;;14.80;99.90;;;;;;5051247;28;19915;-70
2022/04/13 01:02:19;;;;;;;;;;;14.80;99.90;;;;;;5052469;28;19909;-71
2022/04/13 01:04:46;;;;;;;;;;;14.70;99.90;;;;;;5051976;28;19919;-70
2022/04/13 01:07:11;;;;;;;;;;;14.80;99.90;;;;;;5051914;28;20380;-71
2022/04/13 01:09:37;;;;;;;;;;;14.80;99.90;;;;;;5051806;28;19909;-71
2022/04/13 01:12:03;;;;;;;;;;;14.80;99.90;;;;;;5051730;28;19917;-70
2022/04/13 01:14:29;;;;;;;;;;;14.80;99.90;;;;;;5053839;28;19908;-70
2022/04/13 01:16:54;;;;;;;;;;;14.70;99.90;;;;;;5055596;28;19913;-70
2022/04/13 01:19:20;;;;;;;;;;;14.80;99.90;;;;;;5055499;28;19913;-70
2022/04/13 01:21:53;;;;;;;;;;;14.90;99.90;;;;;;5055618;28;19909;-71
2022/04/13 01:24:19;;;;;;;;;;;14.80;99.90;;;;;;5055628;28;19913;-71
2022/04/13 01:26:44;;;;;;;;;;;14.80;99.90;;;;;;5055474;28;19916;-70
2022/04/13 01:29:10;;;;;;;;;;;14.90;99.90;;;;;;5055400;28;19912;-71
2022/04/13 01:31:36;;;;;;;;;;;15.00;99.90;;;;;;5055327;28;19932;-71
2022/04/13 01:34:02;;;;;;;;;;;15.00;99.90;;;;;;5055567;28;20374;-71
2022/04/13 01:36:28;;;;;;;;;;;14.90;99.90;;;;;;5055382;28;19909;-71
2022/04/13 01:38:54;;;;;;;;;;;14.90;99.90;;;;;;5055056;28;20369;-70
2022/04/13 01:41:19;;;;;;;;;;;14.90;99.90;;;;;;5054685;28;19962;-70
2022/04/13 01:43:45;;;;;;;;;;;15.00;99.90;;;;;;5056290;28;19913;-71
2022/04/13 01:46:10;;;;;;;;;;;14.90;99.90;;;;;;5055892;28;19913;-71
2022/04/13 01:48:36;;;;;;;;;;;14.90;99.90;;;;;;5055259;28;20000;-71
2022/04/13 01:51:01;;;;;;;;;;;15.00;99.90;;;;;;5054580;28;20435;-71
2022/04/13 01:53:27;;;;;;;;;;;14.80;99.90;;;;;;5055175;28;19909;-71
2022/04/13 01:55:53;;;;;;;;;;;14.80;99.90;;;;;;5055019;28;19955;-71
2022/04/13 01:58:22;;;;;;;;;;;14.80;99.90;;;;;;5054691;28;20038;-71
2022/04/13 02:00:53;;;;;;;;;;;14.90;99.90;;;;;;5054444;28;19954;-70
2022/04/13 02:03:19;;;;;;;;;;;15.00;99.90;;;;;;5055165;28;19909;-70
2022/04/13 02:05:46;;;;;;;;;;;14.90;99.90;;;;;;5054642;28;19913;-71
2022/04/13 02:08:11;;;;;;;;;;;14.70;99.90;;;;;;5053273;28;19909;-71
2022/04/13 02:10:37;;;;;;;;;;;14.60;99.90;;;;;;5054097;28;19970;-71
2022/04/13 02:13:02;;;;;;;;;;;14.50;99.90;;;;;;5054348;28;20327;-70
2022/04/13 02:15:28;;;;;;;;;;;14.60;99.90;;;;;;5054573;28;19908;-71
2022/04/13 02:17:53;;;;;;;;;;;14.60;99.90;;;;;;5054421;28;20020;-70
2022/04/13 02:20:18;;;;;;;;;;;14.70;99.90;;;;;;5054336;28;20386;-70
2022/04/13 02:22:45;;;;;;;;;;;14.70;99.90;;;;;;5054461;28;20290;-71
2022/04/13 02:25:10;;;;;;;;;;;14.80;99.90;;;;;;5053914;28;19917;-71
2022/04/13 02:27:36;;;;;;;;;;;14.80;99.90;;;;;;5054498;28;19909;-71
2022/04/13 02:30:02;;;;;;;;;;;14.80;99.90;;;;;;5054272;28;19955;-71
2022/04/13 02:32:28;;;;;;;;;;;14.70;99.90;;;;;;5054388;28;19909;-71
2022/04/13 02:34:53;;;;;;;;;;;14.60;99.90;;;;;;5054140;28;19909;-71
2022/04/13 02:37:19;;;;;;;;;;;14.40;99.90;;;;;;5054268;28;19908;-71
2022/04/13 02:39:47;;;;;;;;;;;14.30;99.90;;;;;;5054164;28;19912;-71
2022/04/13 02:42:14;;;;;;;;;;;14.30;99.90;;;;;;5053825;28;20337;-71
2022/04/13 02:44:43;;;;;;;;;;;14.30;99.90;;;;;;5054224;28;20102;-71
2022/04/13 02:47:08;;;;;;;;;;;14.20;99.90;;;;;;5053772;28;19936;-71
2022/04/13 02:49:34;;;;;;;;;;;14.10;99.90;;;;;;5053602;28;19909;-71
2022/04/13 02:51:59;;;;;;;;;;;14.00;99.90;;;;;;5053885;28;20380;-71
2022/04/13 02:54:25;;;;;;;;;;;13.90;99.90;;;;;;5053999;28;20328;-70
2022/04/13 02:56:50;;;;;;;;;;;13.90;99.90;;;;;;5054322;28;19913;-70
2022/04/13 02:59:15;;;;;;;;;;;13.90;99.90;;;;;;5053781;28;19916;-70
2022/04/13 03:01:43;;;;;;;;;;;13.90;99.90;;;;;;5053733;28;19909;-71
2022/04/13 03:04:08;;;;;;;;;;;13.60;99.90;;;;;;5053515;28;19948;-70
2022/04/13 03:06:34;;;;;;;;;;;13.50;99.90;;;;;;5058501;28;19916;-70
2022/04/13 03:08:59;;;;;;;;;;;13.60;99.90;;;;;;5076723;28;19917;-70
2022/04/13 03:11:25;;;;;;;;;;;13.60;99.90;;;;;;5094717;22;20413;-66
2022/04/13 03:13:50;;;;;;;;;;;13.70;99.90;;;;;;5062604;28;20046;-66
2022/04/13 03:16:16;;;;;;;;;;;13.60;99.90;;;;;;5052889;28;19999;-65
2022/04/13 03:18:41;;;;;;;;;;;13.60;99.90;;;;;;5053173;28;20008;-66
2022/04/13 03:21:06;;;;;;;;;;;13.60;99.90;;;;;;5052500;28;19909;-66
2022/04/13 03:23:32;;;;;;;;;;;13.50;99.90;;;;;;5052429;28;19912;-66
2022/04/13 03:25:57;;;;;;;;;;;13.50;99.90;;;;;;5052644;28;19909;-67
2022/04/13 03:28:24;;;;;;;;;;;13.50;99.90;;;;;;5051636;28;19908;-67
2022/04/13 03:30:50;;;;;;;;;;;13.50;99.90;;;;;;5052406;28;20297;-67
2022/04/13 03:33:17;;;;;;;;;;;13.40;99.90;;;;;;5052562;28;19932;-66
2022/04/13 03:35:42;;;;;;;;;;;13.40;99.90;;;;;;5052525;28;19909;-65
2022/04/13 03:38:08;;;;;;;;;;;13.40;99.90;;;;;;5051631;28;20377;-65
2022/04/13 03:40:33;;;;;;;;;;;13.40;99.90;;;;;;5052254;28;20377;-66
2022/04/13 03:42:59;;;;;;;;;;;13.30;99.90;;;;;;5052459;28;19916;-66
2022/04/13 03:45:24;;;;;;;;;;;13.20;99.90;;;;;;5052794;28;19913;-66
2022/04/13 03:47:49;;;;;;;;;;;13.10;99.90;;;;;;5052473;28;20011;-66
2022/04/13 03:50:15;;;;;;;;;;;13.20;99.90;;;;;;5052163;28;19963;-66
2022/04/13 03:52:40;;;;;;;;;;;13.10;99.90;;;;;;5052058;28;20360;-66
2022/04/13 03:55:07;;;;;;;;;;;13.30;99.90;;;;;;5034302;28;19959;-69
2022/04/13 03:57:32;;;;;;;;;;;13.30;99.90;;;;;;5052076;28;19909;-69
2022/04/13 03:59:58;;;;;;;;;;;13.40;99.90;;;;;;5052006;28;20369;-68
2022/04/13 04:02:24;;;;;;;;;;;13.40;99.90;;;;;;5052085;28;19916;-65
2022/04/13 04:04:49;;;;;;;;;;;13.40;99.90;;;;;;5058008;28;19913;-65
2022/04/13 04:07:15;;;;;;;;;;;13.40;99.90;;;;;;5052637;28;19952;-66
2022/04/13 04:09:40;;;;;;;;;;;13.30;99.90;;;;;;5052071;28;20003;-66
2022/04/13 04:12:06;;;;;;;;;;;13.30;99.90;;;;;;5051810;28;19917;-66
2022/04/13 04:14:31;;;;;;;;;;;13.20;99.90;;;;;;5052171;28;19948;-65
2022/04/13 04:16:57;;;;;;;;;;;13.10;99.90;;;;;;5052485;28;19909;-67
2022/04/13 04:19:22;;;;;;;;;;;13.00;99.90;;;;;;5051634;28;19908;-67
2022/04/13 04:21:48;;;;;;;;;;;13.10;99.90;;;;;;5051980;28;19909;-66
2022/04/13 04:24:13;;;;;;;;;;;13.00;99.90;;;;;;5051730;28;20006;-66
2022/04/13 04:26:39;;;;;;;;;;;13.10;99.90;;;;;;5052005;28;20312;-67
2022/04/13 04:29:05;;;;;;;;;;;13.20;99.90;;;;;;5051806;28;19909;-67
2022/04/13 04:34:14;;;;;;;;;;;13.30;99.90;;;;;;5051725;28;20012;-68
2022/04/13 04:36:39;;;;;;;;;;;13.20;99.90;;;;;;5052099;28;20133;-68
2022/04/13 04:39:05;;;;;;;;;;;13.20;99.90;;;;;;5051646;28;19963;-67
2022/04/13 04:41:30;;;;;;;;;;;13.10;99.90;;;;;;5033575;28;19920;-68
2022/04/13 04:43:56;;;;;;;;;;;13.10;99.90;;;;;;5051752;28;19967;-68
2022/04/13 04:46:21;;;;;;;;;;;13.20;99.90;;;;;;5051660;28;19939;-67
2022/04/13 04:48:46;;;;;;;;;;;13.20;99.90;;;;;;5052723;28;19909;-68
2022/04/13 04:51:12;;;;;;;;;;;13.30;99.90;;;;;;5055398;28;20437;-68
2022/04/13 04:53:38;;;;;;;;;;;13.30;99.90;;;;;;5055524;28;20374;-67
2022/04/13 04:56:03;;;;;;;;;;;13.30;99.90;;;;;;5055554;28;19908;-68
2022/04/13 04:58:29;;;;;;;;;;;13.40;99.90;;;;;;5055364;28;20004;-67
2022/04/13 05:00:54;;;;;;;;;;;13.40;99.90;;;;;;5055215;28;19909;-67
2022/04/13 05:03:20;;;;;;;;;;;13.40;99.90;;;;;;5055116;28;19912;-67
2022/04/13 05:05:45;;;;;;;;;;;13.40;99.90;;;;;;5055225;28;19927;-67
2022/04/13 05:08:11;;;;;;;;;;;13.40;99.90;;;;;;5055343;28;19909;-67
2022/04/13 05:10:36;;;;;;;;;;;13.30;99.90;;;;;;5054780;28;19908;-68
2022/04/13 05:13:02;;;;;;;;;;;13.40;99.90;;;;;;5055131;28;20013;-67
2022/04/13 05:15:28;;;;;;;;;;;13.50;99.90;;;;;;5055175;28;20391;-67
2022/04/13 05:17:53;;;;;;;;;;;13.50;99.90;;;;;;5054226;28;20007;-69
2022/04/13 05:20:19;;;;;;;;;;;13.60;99.90;;;;;;5067903;28;20420;-67
2022/04/13 05:22:44;;;;;;;;;;;13.50;99.90;;;;;;5073484;28;19916;-67
2022/04/13 05:25:14;;;;;;;;;;;13.30;99.90;;;;;;5072352;28;20285;-67
2022/04/13 05:27:39;;;;;;;;;;;13.30;99.90;;;;;;5072823;28;19974;-67
2022/04/13 05:30:05;;;;;;;;;;;13.40;99.90;;;;;;5071994;28;19917;-67
2022/04/13 05:32:31;;;;;;;;;;;13.50;99.90;;;;;;5073221;28;19918;-66
2022/04/13 05:34:58;;;;;;;;;;;13.60;99.90;;;;;;5072204;28;20020;-66
2022/04/13 05:37:23;;;;;;;;;;;13.70;99.90;;;;;;5073032;28;20289;-67
2022/04/13 05:39:48;;;;;;;;;;;13.80;99.90;;;;;;5073181;28;19908;-67
2022/04/13 05:42:14;;;;;;;;;;;13.80;99.90;;;;;;5072989;28;19912;-67
2022/04/13 05:44:39;;;;;;;;;;;13.90;99.90;;;;;;5072698;28;19912;-67
2022/04/13 05:47:05;;;;;;;;;;;14.00;99.90;;;;;;5072856;28;19908;-68
2022/04/13 05:49:30;;;;;;;;;;;14.00;99.90;;;;;;5072150;28;19916;-68
2022/04/13 05:51:56;;;;;;;;;;;14.10;99.90;;;;;;5073393;28;19909;-67
2022/04/13 05:54:21;;;;;;;;;;;14.20;99.90;;;;;;5054318;28;19962;-66
2022/04/13 05:56:47;;;;;;;;;;;14.30;99.90;;;;;;5073176;28;19909;-68
2022/04/13 05:59:12;;;;;;;;;;;14.40;99.90;;;;;;5072265;28;20328;-67
2022/04/13 06:01:38;;;;;;;;;;;14.40;99.90;;;;;;5072096;28;19983;-67
2022/04/13 06:04:03;;;;;;;;;;;14.50;99.90;;;;;;5071860;28;19927;-65
2022/04/13 06:06:30;;;;;;;;;;;14.60;99.90;;;;;;5072987;28;19909;-67
2022/04/13 06:08:55;;;;;;;;;;;14.70;99.90;;;;;;5072873;28;19908;-67
2022/04/13 06:11:21;;;;;;;;;;;14.70;99.90;;;;;;5071469;28;19992;-67
2022/04/13 06:13:46;;;;;;;;;;;14.80;99.90;;;;;;5073129;28;19909;-68
2022/04/13 06:16:12;;;;;;;;;;;14.90;99.90;;;;;;5071926;28;19916;-67
2022/04/13 06:18:37;;;;;;;;;;;14.90;99.90;;;;;;5071986;28;19919;-68
2022/04/13 06:21:03;;;;;;;;;;;15.00;99.90;;;;;;5071860;28;19967;-67
2022/04/13 06:23:29;;;;;;;;;;;15.00;99.90;;;;;;5054886;28;19905;-68
2022/04/13 06:25:54;;;;;;;;;;;15.10;99.90;;;;;;5054562;28;19909;-66
2022/04/13 06:28:19;;;;;;;;;;;15.20;99.90;;;;;;5072407;28;19912;-67
2022/04/13 06:30:45;;;;;;;;;;;15.20;99.90;;;;;;5054087;28;19918;-70
2022/04/13 06:33:10;;;;;;;;;;;15.20;99.90;;;;;;5069284;28;19912;-67
2022/04/13 06:35:36;;;;;;;;;;;15.20;99.90;;;;;;5033868;28;19905;-69
2022/04/13 06:38:01;;;;;;;;;;;15.30;99.90;;;;;;5052052;28;19909;-66
2022/04/13 06:40:27;;;;;;;;;;;15.40;99.90;;;;;;5034214;28;19908;-68
2022/04/13 06:42:56;;;;;;;;;;;15.40;99.90;;;;;;5052081;28;19913;-67
2022/04/13 06:45:21;;;;;;;;;;;15.40;99.90;;;;;;5051766;28;19913;-68
2022/04/13 06:47:48;;;;;;;;;;;15.50;99.90;;;;;;5051620;28;20007;-67
2022/04/13 06:50:13;;;;;;;;;;;15.50;99.90;;;;;;5051707;28;20257;-67
2022/04/13 06:52:39;;;;;;;;;;;15.60;99.90;;;;;;5069744;28;19972;-68
2022/04/13 06:55:05;;;;;;;;;;;15.60;99.90;;;;;;5073737;28;19916;-69
2022/04/13 06:57:33;;;;;;;;;;;15.60;99.90;;;;;;5078006;28;20007;-67
2022/04/13 06:59:59;;;;;;;;;;;15.60;99.90;;;;;;5073867;28;19912;-67
2022/04/13 07:02:26;;;;;;;;;;;15.70;99.90;;;;;;5074221;28;19908;-67
2022/04/13 07:04:51;;;;;;;;;;;15.80;99.90;;;;;;5073384;28;19919;-66
2022/04/13 07:07:17;;;;;;;;;;;15.90;99.90;;;;;;5073594;28;19908;-69
2022/04/13 07:09:42;;;;;;;;;;;16.00;99.90;;;;;;5073186;28;19908;-66
2022/04/13 07:12:08;;;;;;;;;;;16.10;99.90;;;;;;5073153;28;19916;-66
2022/04/13 07:14:33;;;;;;;;;;;16.10;99.90;;;;;;5072582;28;20074;-67
2022/04/13 07:16:59;;;;;;;;;;;16.20;99.90;;;;;;5072294;28;20404;-67
2022/04/13 07:19:24;;;;;;;;;;;16.30;99.90;;;;;;5072009;28;19912;-66
2022/04/13 07:21:49;;;;;;;;;;;16.40;99.90;;;;;;5072326;28;19913;-68
2022/04/13 07:24:15;;;;;;;;;;;16.50;99.90;;;;;;5072394;28;19919;-67
2022/04/13 07:26:41;;;;;;;;;;;16.60;99.90;;;;;;5072237;28;20400;-67
2022/04/13 07:29:06;;;;;;;;;;;16.70;99.90;;;;;;5071931;28;19934;-67
2022/04/13 07:31:31;;;;;;;;;;;16.70;99.90;;;;;;5071741;28;19919;-68
2022/04/13 07:33:57;;;;;;;;;;;16.80;99.90;;;;;;5072028;28;20402;-67
2022/04/13 07:36:23;;;;;;;;;;;16.90;99.90;;;;;;5071894;28;19908;-67
2022/04/13 07:38:50;;;;;;;;;;;17.00;99.80;;;;;;5072102;28;19953;-67
2022/04/13 07:41:15;;;;;;;;;;;17.10;99.70;;;;;;5071804;28;19912;-68
2022/04/13 07:43:41;;;;;;;;;;;17.10;99.60;;;;;;5072243;28;20362;-66
2022/04/13 07:46:06;;;;;;;;;;;17.20;99.60;;;;;;5071833;28;19919;-66
2022/04/13 07:48:32;;;;;;;;;;;17.20;99.50;;;;;;5072104;28;19915;-68
2022/04/13 07:50:57;;;;;;;;;;;17.30;99.40;;;;;;5073976;28;19915;-67
2022/04/13 07:53:23;;;;;;;;;;;17.40;99.20;;;;;;5075379;28;20004;-67
2022/04/13 07:55:48;;;;;;;;;;;17.20;99.40;;;;;;5072593;28;19908;-67
2022/04/13 07:58:14;;;;;;;;;;;17.10;99.60;;;;;;5072194;28;19965;-67
2022/04/13 08:00:39;;;;;;;;;;;17.20;99.50;;;;;;5071238;28;19912;-67
2022/04/13 08:03:05;;;;;;;;;;;17.40;99.40;;;;;;5071889;28;20438;-67
2022/04/13 08:05:32;;;;;;;;;;;17.50;99.30;;;;;;5071778;28;20534;-67
2022/04/13 08:07:57;;;;;;;;;;;17.60;99.10;;;;;;5071951;28;19912;-68
2022/04/13 08:10:23;;;;;;;;;;;17.60;99.10;;;;;;5071541;28;19908;-67
2022/04/13 08:12:48;;;;;;;;;;;17.60;99.40;;;;;;5071778;28;19917;-68
2022/04/13 08:15:14;;;;;;;;;;;17.70;99.30;;;;;;5091976;28;19908;-66
2022/04/13 08:17:39;;;;;;;;;;;17.80;99.00;;;;;;5091876;28;20061;-68
2022/04/13 08:20:07;;;;;;;;;;;17.80;98.90;;;;;;5091562;28;19912;-67
2022/04/13 08:22:32;;;;;;;;;;;17.90;99.00;;;;;;5073635;28;19908;-67
2022/04/13 08:24:57;;;;;;;;;;;18.00;98.90;;;;;;5094932;28;20376;-68
2022/04/13 08:27:23;;;;;;;;;;;18.10;98.70;;;;;;5095966;28;20387;-68
2022/04/13 08:29:48;;;;;;;;;;;18.30;98.60;;;;;;5095936;28;19955;-68
2022/04/13 08:32:17;;;;;;;;;;;18.30;98.30;;;;;;5095999;28;19908;-68
2022/04/13 08:34:43;;;;;;;;;;;18.30;98.40;;;;;;5095884;28;19909;-67
2022/04/13 08:37:10;;;;;;;;;;;18.40;98.20;;;;;;5095881;28;19914;-68
2022/04/13 08:39:36;;;;;;;;;;;18.50;98.10;;;;;;5095627;28;20291;-67
2022/04/13 08:42:11;;;;;;;;;;;18.60;98.10;;;;;;5095671;28;19908;-68
2022/04/13 08:44:45;;;;;;;;;;;18.80;98.00;;;;;;5095504;28;19912;-68
2022/04/13 08:47:12;;;;;;;;;;;18.90;97.80;;;;;;5095920;28;19912;-67
2022/04/13 08:49:43;;;;;;;;;;;18.90;97.70;;;;;;5095273;28;19909;-68
2022/04/13 08:52:09;;;;;;;;;;;19.00;97.80;;;;;;5095711;28;19915;-68
2022/04/13 08:54:41;;;;;;;;;;;19.00;97.60;;;;;;5095724;28;19908;-68
2022/04/13 08:57:08;;;;;;;;;;;19.00;97.60;;;;;;5096056;28;19908;-67
2022/04/13 09:00:02;;;;;;;;;;;19.20;97.60;;;;;;5095717;28;20380;-67
2022/04/13 09:02:37;;;;;;;;;;;19.30;97.70;;;;;;5096121;28;19963;-67
2022/04/13 09:05:06;;;;;;;;;;;19.30;97.80;;;;;;5095803;28;20509;-67
2022/04/13 09:07:32;;;;;;;;;;;19.20;97.80;;;;;;5096968;28;19908;-68
2022/04/13 09:10:01;;;;;;;;;;;19.20;98.00;;;;;;5097044;28;19915;-67
2022/04/13 09:12:30;;;;;;;;;;;19.20;97.90;;;;;;5095902;28;19920;-69
2022/04/13 09:15:02;;;;;;;;;;;19.10;98.30;;;;;;5096331;28;19909;-67
2022/04/13 09:17:31;;;;;;;;;;;19.20;98.40;;;;;;5096519;28;19912;-68
2022/04/13 09:19:57;;;;;;;;;;;19.20;98.10;;;;;;5096424;28;19958;-70
2022/04/13 09:22:22;;;;;;;;;;;19.20;98.20;;;;;;5078735;28;20338;-69
2022/04/13 09:24:48;;;;;;;;;;;19.40;98.10;;;;;;5097176;28;19924;-69
2022/04/13 09:27:13;;;;;;;;;;;19.50;97.90;;;;;;5095834;28;19908;-68
2022/04/13 09:29:39;;;;;;;;;;;19.60;97.60;;;;;;5095249;28;19915;-69
2022/04/13 09:32:04;;;;;;;;;;;19.80;97.30;;;;;;5095287;28;19912;-69
2022/04/13 09:34:30;;;;;;;;;;;20.00;97.00;;;;;;5095213;28;19916;-68
2022/04/13 09:36:55;;;;;;;;;;;20.20;96.70;;;;;;5076608;28;19947;-68
2022/04/13 09:39:21;;;;;;;;;;;20.30;96.50;;;;;;5095052;28;20022;-67
2022/04/13 09:41:47;;;;;;;;;;;20.40;96.30;;;;;;5094698;28;19908;-65
2022/04/13 09:44:15;;;;;;;;;;;20.40;96.20;;;;;;5095230;28;19912;-69
2022/04/13 09:46:42;;;;;;;;;;;20.60;95.80;;;;;;5095666;28;19961;-66
2022/04/13 09:49:17;;;;;;;;;;;20.90;95.50;;;;;;5076835;28;19912;-67
2022/04/13 09:51:49;;;;;;;;;;;20.80;95.10;;;;;;5094694;28;19909;-68
2022/04/13 09:54:16;;;;;;;;;;;20.70;95.40;;;;;;5094668;28;20016;-68
2022/04/13 09:56:47;;;;;;;;;;;20.60;95.40;;;;;;5094564;28;19908;-67
2022/04/13 09:59:12;;;;;;;;;;;20.40;95.50;;;;;;5093747;28;19908;-68
2022/04/13 10:01:38;;;;;;;;;;;20.60;95.60;;;;;;5094573;28;19918;-67
2022/04/13 10:04:03;;;;;;;;;;;20.80;95.00;;;;;;5094819;28;20011;-67
2022/04/13 10:06:30;;;;;;;;;;;21.10;94.70;;;;;;5094074;28;19908;-67
2022/04/13 10:09:00;;;;;;;;;;;21.20;94.40;;;;;;5094328;28;20540;-69
2022/04/13 10:11:26;;;;;;;;;;;21.20;94.00;;;;;;5093879;28;19916;-66
2022/04/13 10:13:51;;;;;;;;;;;20.90;94.40;;;;;;5094424;28;19942;-66
2022/04/13 10:16:16;;;;;;;;;;;20.90;94.60;;;;;;5094150;28;19908;-67
2022/04/13 10:18:59;;;;;;;;;;;20.90;94.60;;;;;;5093705;28;19915;-66
2022/04/13 10:21:40;;;;;;;;;;;20.80;94.70;;;;;;5093785;28;20384;-66
2022/04/13 10:24:06;;;;;;;;;;;20.70;94.90;;;;;;5097966;28;19962;-66
2022/04/13 10:26:31;;;;;;;;;;;20.40;94.80;;;;;;5094229;28;19912;-66
2022/04/13 10:28:57;;;;;;;;;;;20.20;95.00;;;;;;5094197;28;19915;-68
2022/04/13 10:31:22;;;;;;;;;;;20.00;95.30;;;;;;5093985;28;19955;-67
2022/04/13 10:33:48;;;;;;;;;;;20.10;95.40;;;;;;5094049;28;19908;-68
2022/04/13 10:36:15;;;;;;;;;;;20.00;95.60;;;;;;5093854;28;20306;-68
2022/04/13 10:38:40;;;;;;;;;;;19.90;95.90;;;;;;5094459;28;19912;-66
2022/04/13 10:41:07;;;;;;;;;;;19.90;95.90;;;;;;5093523;28;19912;-67
2022/04/13 10:43:33;;;;;;;;;;;20.00;96.00;;;;;;5094503;28;19914;-69
2022/04/13 10:45:58;;;;;;;;;;;20.10;95.90;;;;;;5093981;28;19908;-69
2022/04/13 10:48:29;;;;;;;;;;;20.20;95.70;;;;;;5094119;28;20349;-66
2022/04/13 10:50:54;;;;;;;;;;;20.30;95.40;;;;;;5093897;28;19951;-67
2022/04/13 10:53:24;;;;;;;;;;;20.40;95.10;;;;;;5072420;28;20586;-68
2022/04/13 10:56:00;;;;;;;;;;;20.40;95.00;;;;;;5051824;28;20019;-67
2022/04/13 10:58:31;;;;;;;;;;;20.50;95.00;;;;;;5051423;28;19938;-66
2022/04/13 11:01:04;;;;;;;;;;;20.50;94.70;;;;;;5051950;28;19908;-67
2022/04/13 11:03:34;;;;;;;;;;;20.40;94.70;;;;;;5051855;28;19913;-66
2022/04/13 11:06:04;;;;;;;;;;;20.50;94.90;;;;;;5065707;28;19912;-70
2022/04/13 11:08:35;;;;;;;;;;;20.60;94.70;;;;;;5072318;28;20425;-66
2022/04/13 11:11:01;;;;;;;;;;;20.60;94.70;;;;;;5072348;28;19942;-66
2022/04/13 11:13:30;;;;;;;;;;;20.70;94.60;;;;;;5057554;28;19968;-69
2022/04/13 11:15:55;;;;;;;;;;;20.60;94.60;;;;;;5072590;28;19908;-67
2022/04/13 11:18:21;;;;;;;;;;;20.60;94.40;;;;;;5071882;28;19972;-67
2022/04/13 11:20:59;;;;;;;;;;;20.50;94.50;;;;;;5072141;28;19909;-67
2022/04/13 11:23:44;;;;;;;;;;;20.60;94.60;;;;;;5072112;28;19912;-67
2022/04/13 11:26:10;;;;;;;;;;;20.80;94.40;;;;;;5071553;28;20186;-69
2022/04/13 11:28:36;;;;;;;;;;;21.10;94.00;;;;;;5053751;28;20003;-67
2022/04/13 11:31:02;;;;;;;;;;;21.00;93.70;;;;;;5053104;28;20397;-67
2022/04/13 11:33:50;;;;;;;;;;;21.00;94.10;;;;;;5072318;28;20376;-68
2022/04/13 11:36:16;;;;;;;;;;;21.20;93.30;;;;;;5072771;28;19938;-65
2022/04/13 11:38:48;;;;;;;;;;;21.30;93.30;;;;;;5072712;28;19913;-67
2022/04/13 11:41:13;;;;;;;;;;;21.50;93.10;;;;;;5070780;28;19916;-67
2022/04/13 11:43:39;;;;;;;;;;;21.80;92.70;;;;;;5072388;28;19908;-67
2022/04/13 11:46:05;;;;;;;;;;;21.80;92.60;;;;;;5072552;28;19944;-66
2022/04/13 11:48:34;;;;;;;;;;;21.60;92.70;;;;;;5054527;28;19955;-67
2022/04/13 11:51:18;;;;;;;;;;;21.50;92.90;;;;;;5072073;28;19987;-68
2022/04/13 11:53:54;;;;;;;;;;;21.40;93.10;;;;;;5072478;28;19916;-69
2022/04/13 11:56:35;;;;;;;;;;;21.40;93.10;;;;;;5072271;28;20285;-64
2022/04/13 11:59:01;;;;;;;;;;;21.20;93.30;;;;;;5071533;28;20495;-67
2022/04/13 12:01:27;;;;;;;;;;;21.20;93.60;;;;;;5071777;28;19908;-66
2022/04/13 12:03:54;;;;;;;;;;;21.10;93.50;;;;;;5072010;28;20003;-66
2022/04/13 12:06:24;;;;;;;;;;;21.10;93.70;;;;;;5072406;28;19908;-67
2022/04/13 12:08:54;;;;;;;;;;;21.10;93.60;;;;;;5072363;28;20007;-66
2022/04/13 12:11:20;;;;;;;;;;;21.20;93.50;;;;;;5072162;28;19917;-66
2022/04/13 12:13:51;;;;;;;;;;;21.10;93.50;;;;;;5072217;28;19948;-66
2022/04/13 12:16:19;;;;;;;;;;;20.90;93.50;;;;;;5072383;28;19908;-66
2022/04/13 12:18:44;;;;;;;;;;;21.00;93.80;;;;;;5072279;28;19966;-65
2022/04/13 12:21:11;;;;;;;;;;;21.10;93.50;;;;;;5072457;28;19913;-66
2022/04/13 12:23:38;;;;;;;;;;;21.20;93.50;;;;;;5072210;28;19909;-67
2022/04/13 12:26:04;;;;;;;;;;;21.00;93.40;;;;;;5072536;28;20577;-68
2022/04/13 12:28:29;;;;;;;;;;;20.80;93.40;;;;;;5072426;28;19916;-67
2022/04/13 12:30:59;;;;;;;;;;;20.70;93.50;;;;;;5072223;28;20007;-67
2022/04/13 12:33:26;;;;;;;;;;;20.70;93.90;;;;;;5071995;28;19908;-67
2022/04/13 12:35:53;;;;;;;;;;;20.70;94.00;;;;;;5071997;28;19971;-66
2022/04/13 12:38:23;;;;;;;;;;;20.90;94.00;;;;;;5072568;28;20392;-66
2022/04/13 12:40:48;;;;;;;;;;;21.00;93.20;;;;;;5071452;28;20357;-68
2022/04/13 12:43:26;;;;;;;;;;;21.10;93.40;;;;;;5072169;28;19915;-66
2022/04/13 12:45:52;;;;;;;;;;;21.20;93.30;;;;;;5071615;28;19912;-67
2022/04/13 12:48:23;;;;;;;;;;;21.20;93.90;;;;;;5054036;28;19915;-66
2022/04/13 12:50:58;;;;;;;;;;;21.20;94.10;;;;;;5071639;28;19909;-68
2022/04/13 12:53:24;;;;;;;;;;;21.50;93.70;;;;;;5071958;28;19908;-67
2022/04/13 12:55:50;;;;;;;;;;;21.50;94.00;;;;;;5072585;28;20011;-66
2022/04/13 12:58:16;;;;;;;;;;;21.60;93.90;;;;;;5071557;28;19913;-66
2022/04/13 13:00:46;;;;;;;;;;;21.40;94.30;;;;;;5071174;28;19932;-68
2022/04/13 13:03:11;;;;;;;;;;;21.20;94.70;;;;;;5071451;28;19913;-65
2022/04/13 13:05:37;;;;;;;;;;;21.30;94.70;;;;;;5071609;28;19912;-67
2022/04/13 13:08:03;;;;;;;;;;;21.20;94.80;;;;;;5071396;28;19909;-67
2022/04/13 13:10:32;;;;;;;;;;;21.20;94.80;;;;;;5073467;28;19909;-66
2022/04/13 13:13:11;;;;;;;;;;;21.30;94.70;;;;;;5074510;28;19931;-65
2022/04/13 13:15:37;;;;;;;;;;;21.60;94.20;;;;;;5075281;28;19955;-66
2022/04/13 13:18:06;;;;;;;;;;;21.60;94.10;;;;;;5075253;28;19909;-67
2022/04/13 13:20:32;;;;;;;;;;;21.60;94.10;;;;;;5074436;28;19920;-66
2022/04/13 13:22:58;;;;;;;;;;;21.60;94.20;;;;;;5074964;28;19962;-66
2022/04/13 13:25:23;;;;;;;;;;;21.50;94.60;;;;;;5075053;28;20261;-68
2022/04/13 13:27:57;;;;;;;;;;;21.50;94.60;;;;;;5080817;28;20386;-65
2022/04/13 13:30:23;;;;;;;;;;;21.40;94.90;;;;;;5100008;22;20301;-70
2022/04/13 13:32:50;;;;;;;;;;;21.40;94.60;;;;;;5062287;28;19909;-70
2022/04/13 13:35:16;;;;;;;;;;;21.50;94.40;;;;;;5053407;28;20362;-71
2022/04/13 13:37:49;;;;;;;;;;;21.30;94.60;;;;;;5053906;28;19923;-71
2022/04/13 13:40:33;;;;;;;;;;;21.20;94.90;;;;;;5054015;28;19916;-70
2022/04/13 13:42:59;;;;;;;;;;;21.00;95.00;;;;;;5054777;28;19934;-71
2022/04/13 13:45:35;;;;;;;;;;;21.20;95.10;;;;;;5054345;28;20494;-71
2022/04/13 13:48:01;;;;;;;;;;;21.30;95.20;;;;;;5054369;28;19920;-71
2022/04/13 13:50:27;;;;;;;;;;;21.10;95.60;;;;;;5054671;28;19917;-71
2022/04/13 13:52:53;;;;;;;;;;;20.90;95.70;;;;;;5054343;28;20317;-70
2022/04/13 13:55:22;;;;;;;;;;;20.70;95.90;;;;;;5054042;28;19909;-70
2022/04/13 13:57:48;;;;;;;;;;;20.70;96.00;;;;;;5052745;28;19909;-71
2022/04/13 14:00:14;;;;;;;;;;;20.90;95.70;;;;;;5053750;28;20008;-70
2022/04/13 14:02:39;;;;;;;;;;;21.00;95.30;;;;;;5054141;28;19919;-71
2022/04/13 14:05:05;;;;;;;;;;;21.00;95.00;;;;;;5054064;28;20008;-71
2022/04/13 14:07:31;;;;;;;;;;;21.10;95.20;;;;;;5054030;28;19955;-72
2022/04/13 14:09:57;;;;;;;;;;;21.00;95.30;;;;;;5052507;28;19915;-71
2022/04/13 14:12:22;;;;;;;;;;;20.90;95.50;;;;;;5051883;28;20003;-71
2022/04/13 14:14:48;;;;;;;;;;;20.90;95.80;;;;;;5051829;28;19916;-70
2022/04/13 14:17:13;;;;;;;;;;;21.00;95.80;;;;;;5051444;28;19909;-71